Time;durP1;ratioP1;P1;durP2;ratioP2;P2;SDS_P1;SDS_P2;PMS_P1;PMS_P2;Temp;Humidity;BMP_temperature;BMP_pressure;BME280_temperature;BME280_humidity;BME280_pressure;Samples;Min_cycle;Max_cycle;Signal;HPM_P1;HPM_P2
2023/04/11 00:01:53;;;;;;;107.32;9.18;;;;;;;;;;4997335;28;20277;-60
2023/04/11 00:04:19;;;;;;;119.33;8.33;;;;;;;;;;4997912;28;20021;-59
2023/04/11 00:06:44;;;;;;;124.45;8.65;;;;;;;;;;5000425;28;20272;-60
2023/04/11 00:09:10;;;;;;;118.90;7.33;;;;;;;;;;4993460;28;20490;-59
2023/04/11 00:11:35;;;;;;;107.07;7.43;;;;;;;;;;4995889;28;20796;-60
2023/04/11 00:14:01;;;;;;;95.65;6.45;;;;;;;;;;5001376;28;20075;-58
2023/04/11 00:16:26;;;;;;;114.40;8.82;;;;;;;;;;4994441;28;20145;-60
2023/04/11 00:18:51;;;;;;;130.32;9.38;;;;;;;;;;4998840;28;20444;-57
2023/04/11 00:21:16;;;;;;;107.37;8.43;;;;;;;;;;4998683;28;20030;-59
2023/04/11 00:23:41;;;;;;;111.18;8.68;;;;;;;;;;4995537;28;20658;-60
2023/04/11 00:26:07;;;;;;;86.97;7.97;;;;;;;;;;4995373;28;20049;-59
2023/04/11 00:28:32;;;;;;;110.15;8.80;;;;;;;;;;4995535;28;20577;-60
2023/04/11 00:30:58;;;;;;;104.07;8.23;;;;;;;;;;4991845;28;20291;-59
2023/04/11 00:33:23;;;;;;;96.85;8.43;;;;;;;;;;4994424;28;20018;-60
2023/04/11 00:35:48;;;;;;;133.97;8.60;;;;;;;;;;4999278;28;20038;-59
2023/04/11 00:38:14;;;;;;;130.07;9.45;;;;;;;;;;4992922;28;20274;-58
2023/04/11 00:40:39;;;;;;;94.97;7.97;;;;;;;;;;4994479;28;20266;-60
2023/04/11 00:43:04;;;;;;;161.57;10.77;;;;;;;;;;4995286;28;20026;-59
2023/04/11 00:45:30;;;;;;;113.28;8.85;;;;;;;;;;4996288;28;20148;-59
2023/04/11 00:47:55;;;;;;;116.35;8.77;;;;;;;;;;4995574;28;20025;-60
2023/04/11 00:50:21;;;;;;;117.07;9.13;;;;;;;;;;4996635;28;20022;-60
2023/04/11 00:52:48;;;;;;;95.72;7.65;;;;;;;;;;4996168;28;20033;-59
2023/04/11 00:55:13;;;;;;;119.28;8.73;;;;;;;;;;4985568;28;20109;-60
2023/04/11 00:57:40;;;;;;;129.95;9.60;;;;;;;;;;4995967;28;20374;-60
2023/04/11 01:00:08;;;;;;;82.40;7.72;;;;;;;;;;4995632;28;20105;-60
2023/04/11 01:02:34;;;;;;;94.03;7.95;;;;;;;;;;4995942;28;20338;-60
2023/04/11 01:04:59;;;;;;;91.80;8.43;;;;;;;;;;4993522;28;20463;-59
2023/04/11 01:07:25;;;;;;;114.30;8.95;;;;;;;;;;4992715;28;20084;-59
2023/04/11 01:09:51;;;;;;;119.30;8.60;;;;;;;;;;4995717;28;20069;-59
2023/04/11 01:12:16;;;;;;;100.78;8.02;;;;;;;;;;4994275;28;20512;-60
2023/04/11 01:14:42;;;;;;;113.15;8.45;;;;;;;;;;4996831;28;20028;-59
2023/04/11 01:17:11;;;;;;;113.55;9.15;;;;;;;;;;4995129;28;20042;-59
2023/04/11 01:19:36;;;;;;;111.63;8.82;;;;;;;;;;4993873;28;20084;-57
2023/04/11 01:22:02;;;;;;;91.25;7.35;;;;;;;;;;4995874;28;20038;-57
2023/04/11 01:24:27;;;;;;;88.03;7.82;;;;;;;;;;4994267;28;20026;-60
2023/04/11 01:26:53;;;;;;;101.25;7.97;;;;;;;;;;4997313;28;20133;-59
2023/04/11 01:29:18;;;;;;;126.30;9.43;;;;;;;;;;4994476;28;20027;-57
2023/04/11 01:31:43;;;;;;;102.53;8.48;;;;;;;;;;4991874;28;20045;-58
2023/04/11 01:34:12;;;;;;;121.93;8.95;;;;;;;;;;5008419;28;20032;-59
2023/04/11 01:36:37;;;;;;;97.55;7.40;;;;;;;;;;4996369;28;20029;-59
2023/04/11 01:39:03;;;;;;;157.57;10.07;;;;;;;;;;4996261;28;20045;-59
2023/04/11 01:41:28;;;;;;;100.20;7.97;;;;;;;;;;4996211;28;20157;-57
2023/04/11 01:43:53;;;;;;;101.53;8.07;;;;;;;;;;4994957;28;20034;-60
2023/04/11 01:46:19;;;;;;;116.90;8.63;;;;;;;;;;4993033;28;20037;-60
2023/04/11 01:48:44;;;;;;;107.65;8.82;;;;;;;;;;4996939;28;20263;-59
2023/04/11 01:51:10;;;;;;;96.05;8.25;;;;;;;;;;4991806;28;20702;-58
2023/04/11 01:53:35;;;;;;;114.75;9.65;;;;;;;;;;4998001;28;20018;-60
2023/04/11 01:56:00;;;;;;;128.88;8.98;;;;;;;;;;4989705;28;20458;-60
2023/04/11 01:58:26;;;;;;;110.97;9.00;;;;;;;;;;4995375;28;20593;-58
2023/04/11 02:00:51;;;;;;;139.13;10.52;;;;;;;;;;4995963;28;20348;-59
2023/04/11 02:03:17;;;;;;;139.03;9.93;;;;;;;;;;4995661;28;20054;-59
2023/04/11 02:05:42;;;;;;;137.82;10.77;;;;;;;;;;4995341;28;20365;-60
2023/04/11 02:08:08;;;;;;;115.13;9.27;;;;;;;;;;4993116;28;20038;-59
2023/04/11 02:10:33;;;;;;;80.85;7.75;;;;;;;;;;4993671;28;20332;-60
2023/04/11 02:12:58;;;;;;;159.90;11.90;;;;;;;;;;4996841;28;20108;-59
2023/04/11 02:15:23;;;;;;;108.17;10.07;;;;;;;;;;4995488;28;20384;-58
2023/04/11 02:17:52;;;;;;;138.82;10.15;;;;;;;;;;4996529;28;20257;-57
2023/04/11 02:20:18;;;;;;;111.60;9.23;;;;;;;;;;4996518;28;20652;-56
2023/04/11 02:22:43;;;;;;;104.07;9.15;;;;;;;;;;4997834;28;20017;-58
2023/04/11 02:25:08;;;;;;;141.20;11.03;;;;;;;;;;4999351;28;20028;-58
2023/04/11 02:27:33;;;;;;;102.22;9.13;;;;;;;;;;5002177;28;20279;-56
2023/04/11 02:30:04;;;;;;;114.70;9.63;;;;;;;;;;4998402;28;20548;-57
2023/04/11 02:32:31;;;;;;;90.03;8.75;;;;;;;;;;4992733;28;20291;-58
2023/04/11 02:34:56;;;;;;;111.93;10.40;;;;;;;;;;4999151;28;20464;-58
2023/04/11 02:37:21;;;;;;;144.10;10.80;;;;;;;;;;5000689;28;20034;-57
2023/04/11 02:39:47;;;;;;;118.50;10.50;;;;;;;;;;5005990;28;20326;-56
2023/04/11 02:42:12;;;;;;;109.32;8.70;;;;;;;;;;5001600;28;20497;-59
2023/04/11 02:44:37;;;;;;;115.38;9.93;;;;;;;;;;4996405;28;20114;-58
2023/04/11 02:47:03;;;;;;;82.27;8.43;;;;;;;;;;4999597;28;20129;-58
2023/04/11 02:49:28;;;;;;;134.40;11.60;;;;;;;;;;4997638;28;20813;-58
2023/04/11 02:51:53;;;;;;;103.20;8.75;;;;;;;;;;4996603;28;20030;-58
2023/04/11 02:54:18;;;;;;;114.40;9.80;;;;;;;;;;5000608;28;20464;-58
2023/04/11 02:56:44;;;;;;;127.00;10.68;;;;;;;;;;4998860;28;20061;-58
2023/04/11 02:59:09;;;;;;;125.70;9.57;;;;;;;;;;5001454;28;20758;-57
2023/04/11 03:01:36;;;;;;;113.30;9.83;;;;;;;;;;4999551;28;20033;-57
2023/04/11 03:04:01;;;;;;;131.70;10.57;;;;;;;;;;4996474;28;20304;-58
2023/04/11 03:06:27;;;;;;;106.00;9.85;;;;;;;;;;4998417;28;20116;-56
2023/04/11 03:08:52;;;;;;;158.77;11.18;;;;;;;;;;4996941;28;20028;-58
2023/04/11 03:11:17;;;;;;;110.90;9.30;;;;;;;;;;4999183;28;20154;-56
2023/04/11 03:13:43;;;;;;;98.67;8.27;;;;;;;;;;4998727;28;20026;-57
2023/04/11 03:16:08;;;;;;;150.65;10.52;;;;;;;;;;4997818;28;20269;-58
2023/04/11 03:18:33;;;;;;;97.88;9.00;;;;;;;;;;5003553;28;20032;-58
2023/04/11 03:20:59;;;;;;;89.30;8.48;;;;;;;;;;5001972;28;20127;-58
2023/04/11 03:23:24;;;;;;;126.20;10.02;;;;;;;;;;4996266;28;20117;-58
2023/04/11 03:25:49;;;;;;;106.70;10.00;;;;;;;;;;5001250;28;20417;-57
2023/04/11 03:28:15;;;;;;;121.05;8.20;;;;;;;;;;4997979;28;20026;-57
2023/04/11 03:30:41;;;;;;;107.00;8.77;;;;;;;;;;4996543;28;20042;-59
2023/04/11 03:33:06;;;;;;;167.60;11.68;;;;;;;;;;4999338;28;20120;-58
2023/04/11 03:35:32;;;;;;;113.95;8.90;;;;;;;;;;4997810;28;20041;-58
2023/04/11 03:37:57;;;;;;;104.50;8.43;;;;;;;;;;4996566;28;20503;-58
2023/04/11 03:40:22;;;;;;;107.70;9.13;;;;;;;;;;4996926;28;20021;-56
2023/04/11 03:42:48;;;;;;;110.07;9.27;;;;;;;;;;4997031;28;20277;-57
2023/04/11 03:45:13;;;;;;;99.13;8.77;;;;;;;;;;4996565;28;20020;-58
2023/04/11 03:47:39;;;;;;;111.73;9.73;;;;;;;;;;4997769;28;20018;-58
2023/04/11 03:50:05;;;;;;;98.90;9.07;;;;;;;;;;4997756;28;20261;-59
2023/04/11 03:52:30;;;;;;;106.25;9.40;;;;;;;;;;4999238;28;20033;-58
2023/04/11 03:54:55;;;;;;;117.35;9.80;;;;;;;;;;4998019;28;20030;-58
2023/04/11 03:57:21;;;;;;;107.40;8.87;;;;;;;;;;4997854;28;20040;-58
2023/04/11 03:59:46;;;;;;;119.00;9.88;;;;;;;;;;4997152;28;20351;-58
2023/04/11 04:02:12;;;;;;;121.22;9.73;;;;;;;;;;4998609;28;20026;-57
2023/04/11 04:04:39;;;;;;;86.35;7.80;;;;;;;;;;4994512;28;20092;-59
2023/04/11 04:07:04;;;;;;;115.38;9.73;;;;;;;;;;4998984;28;20049;-57
2023/04/11 04:09:29;;;;;;;113.18;8.80;;;;;;;;;;4996835;28;20034;-58
2023/04/11 04:11:56;;;;;;;101.22;9.00;;;;;;;;;;4997478;28;20609;-59
2023/04/11 04:14:21;;;;;;;128.80;10.07;;;;;;;;;;4996666;28;20018;-57
2023/04/11 04:16:46;;;;;;;124.97;10.20;;;;;;;;;;4994294;28;20074;-59
2023/04/11 04:19:12;;;;;;;101.00;9.30;;;;;;;;;;4994892;28;20525;-59
2023/04/11 04:21:37;;;;;;;93.65;10.05;;;;;;;;;;4996432;28;21060;-59
2023/04/11 04:24:03;;;;;;;98.57;9.30;;;;;;;;;;5000889;28;20022;-58
2023/04/11 04:26:30;;;;;;;121.60;9.05;;;;;;;;;;4995514;28;20518;-59
2023/04/11 04:29:03;;;;;;;134.00;10.48;;;;;;;;;;4998667;28;20390;-58
2023/04/11 04:31:28;;;;;;;130.57;10.02;;;;;;;;;;4994097;28;20087;-58
2023/04/11 04:33:57;;;;;;;115.80;8.65;;;;;;;;;;4994402;28;20026;-59
2023/04/11 04:36:23;;;;;;;100.82;8.82;;;;;;;;;;4996370;28;20031;-57
2023/04/11 04:38:49;;;;;;;138.15;9.48;;;;;;;;;;4995099;28;20061;-58
2023/04/11 04:41:14;;;;;;;92.60;8.38;;;;;;;;;;4992982;28;20398;-59
2023/04/11 04:43:40;;;;;;;116.05;9.20;;;;;;;;;;4999956;28;20148;-59
2023/04/11 04:46:06;;;;;;;104.78;8.15;;;;;;;;;;4996035;28;20041;-59
2023/04/11 04:48:31;;;;;;;90.95;7.88;;;;;;;;;;4995176;28;20381;-58
2023/04/11 04:50:56;;;;;;;124.88;9.48;;;;;;;;;;4994934;28;20033;-59
2023/04/11 04:53:22;;;;;;;102.43;8.93;;;;;;;;;;4993164;28;20548;-59
2023/04/11 04:55:47;;;;;;;114.40;9.35;;;;;;;;;;4996612;28;20836;-58
2023/04/11 04:58:12;;;;;;;163.20;10.87;;;;;;;;;;4996549;28;20021;-60
2023/04/11 05:00:39;;;;;;;116.50;9.07;;;;;;;;;;4995756;28;20295;-59
2023/04/11 05:03:04;;;;;;;152.13;10.93;;;;;;;;;;4993208;28;20268;-59
2023/04/11 05:05:29;;;;;;;110.15;9.32;;;;;;;;;;4996952;28;20253;-58
2023/04/11 05:07:54;;;;;;;103.35;9.43;;;;;;;;;;4995856;28;20552;-59
2023/04/11 05:10:20;;;;;;;119.43;9.73;;;;;;;;;;4994973;28;20018;-59
2023/04/11 05:12:45;;;;;;;103.05;9.15;;;;;;;;;;4996953;28;20030;-56
2023/04/11 05:15:10;;;;;;;119.60;10.02;;;;;;;;;;4998446;28;20489;-59
2023/04/11 05:17:36;;;;;;;116.90;10.03;;;;;;;;;;4998352;28;20595;-59
2023/04/11 05:20:01;;;;;;;106.88;10.15;;;;;;;;;;4995864;28;20253;-59
2023/04/11 05:22:26;;;;;;;112.35;9.95;;;;;;;;;;4995957;28;20444;-58
2023/04/11 05:24:51;;;;;;;149.63;14.00;;;;;;;;;;4991903;28;20033;-56
2023/04/11 05:27:18;;;;;;;126.83;11.17;;;;;;;;;;4996155;28;20795;-59
2023/04/11 05:29:43;;;;;;;148.15;12.40;;;;;;;;;;4995691;28;20261;-58
2023/04/11 05:32:08;;;;;;;119.97;10.70;;;;;;;;;;4992807;28;20030;-59
2023/04/11 05:34:48;;;;;;;150.33;13.20;;;;;;;;;;4994956;28;20292;-58
2023/04/11 05:37:13;;;;;;;194.57;24.75;;;;;;;;;;4991558;28;20299;-59
2023/04/11 05:39:39;;;;;;;148.38;14.65;;;;;;;;;;4993035;28;20044;-56
2023/04/11 05:42:04;;;;;;;158.52;15.90;;;;;;;;;;4994347;28;20045;-59
2023/04/11 05:44:29;;;;;;;102.85;8.95;;;;;;;;;;4994185;28;20038;-59
2023/04/11 05:46:55;;;;;;;89.07;7.03;;;;;;;;;;4992734;28;20069;-60
2023/04/11 05:49:20;;;;;;;117.95;7.10;;;;;;;;;;4993524;28;20292;-59
2023/04/11 05:51:45;;;;;;;101.43;5.70;;;;;;;;;;4992187;28;20045;-59
2023/04/11 05:54:12;;;;;;;121.70;7.17;;;;;;;;;;4995067;28;20269;-59
2023/04/11 05:56:41;;;;;;;94.10;6.13;;;;;;;;;;4989998;28;20336;-59
2023/04/11 05:59:06;;;;;;;127.82;7.30;;;;;;;;;;4995911;28;20405;-59
2023/04/11 06:01:31;;;;;;;117.53;7.43;;;;;;;;;;4992513;28;20033;-58
2023/04/11 06:03:56;;;;;;;112.27;6.17;;;;;;;;;;4994836;28;20264;-57
2023/04/11 06:06:22;;;;;;;110.18;5.32;;;;;;;;;;4994328;28;20271;-59
2023/04/11 06:08:48;;;;;;;127.60;6.63;;;;;;;;;;4996187;28;20497;-58
2023/04/11 06:11:13;;;;;;;106.18;5.53;;;;;;;;;;4993392;28;20408;-59
2023/04/11 06:13:38;;;;;;;125.18;5.93;;;;;;;;;;4991307;28;20022;-60
2023/04/11 06:16:05;;;;;;;92.90;5.03;;;;;;;;;;4995685;28;20068;-59
2023/04/11 06:18:30;;;;;;;122.68;5.93;;;;;;;;;;4995170;28;21059;-59
2023/04/11 06:20:55;;;;;;;135.43;6.53;;;;;;;;;;4994246;28;20042;-59
2023/04/11 06:23:21;;;;;;;105.10;5.40;;;;;;;;;;4996508;28;20261;-59
2023/04/11 06:25:46;;;;;;;142.97;6.77;;;;;;;;;;4995582;28;20057;-59
2023/04/11 06:28:11;;;;;;;104.05;5.50;;;;;;;;;;4995718;28;20272;-60
2023/04/11 06:30:36;;;;;;;87.15;4.78;;;;;;;;;;4990749;28;20241;-59
2023/04/11 06:33:01;;;;;;;181.30;8.77;;;;;;;;;;4991292;28;20014;-59
2023/04/11 06:35:27;;;;;;;96.80;5.07;;;;;;;;;;4992628;28;20429;-59
2023/04/11 06:37:52;;;;;;;109.67;5.53;;;;;;;;;;4993437;28;20265;-57
2023/04/11 06:40:19;;;;;;;130.63;6.30;;;;;;;;;;4993590;28;20269;-59
2023/04/11 06:42:44;;;;;;;100.28;5.20;;;;;;;;;;4995498;28;20017;-59
2023/04/11 06:45:10;;;;;;;101.40;5.25;;;;;;;;;;4990400;28;20030;-58
2023/04/11 06:47:36;;;;;;;109.20;5.72;;;;;;;;;;4996811;28;20110;-59
2023/04/11 06:50:01;;;;;;;95.80;5.07;;;;;;;;;;4993854;28;20398;-59
2023/04/11 06:52:26;;;;;;;115.93;5.78;;;;;;;;;;4992652;28;20720;-58
2023/04/11 06:54:51;;;;;;;107.70;5.50;;;;;;;;;;4995947;28;20049;-59
2023/04/11 06:57:16;;;;;;;96.73;4.93;;;;;;;;;;4990924;28;20034;-57
2023/04/11 06:59:42;;;;;;;107.47;5.40;;;;;;;;;;4992429;28;20320;-58
2023/04/11 07:02:07;;;;;;;77.18;4.32;;;;;;;;;;4995239;28;20269;-59
2023/04/11 07:04:32;;;;;;;121.37;5.63;;;;;;;;;;5009770;28;20027;-59
2023/04/11 07:06:58;;;;;;;142.05;6.78;;;;;;;;;;5001292;28;20272;-59
2023/04/11 07:09:23;;;;;;;100.30;5.07;;;;;;;;;;5001405;28;20104;-58
2023/04/11 07:11:48;;;;;;;101.55;4.93;;;;;;;;;;5001175;28;20379;-58
2023/04/11 07:14:13;;;;;;;105.13;5.43;;;;;;;;;;4997884;28;20057;-59
2023/04/11 07:16:39;;;;;;;112.83;6.10;;;;;;;;;;4996497;28;20069;-59
2023/04/11 07:19:04;;;;;;;136.32;6.63;;;;;;;;;;4999991;28;20288;-59
2023/04/11 07:21:31;;;;;;;130.38;6.47;;;;;;;;;;4996449;28;20041;-59
2023/04/11 07:23:56;;;;;;;124.97;5.95;;;;;;;;;;5000521;28;20068;-59
2023/04/11 07:26:22;;;;;;;136.27;6.72;;;;;;;;;;4996489;28;20042;-59
2023/04/11 07:28:48;;;;;;;118.05;5.88;;;;;;;;;;4996480;28;20030;-57
2023/04/11 07:31:13;;;;;;;98.07;5.28;;;;;;;;;;4996695;28;20048;-58
2023/04/11 07:33:41;;;;;;;100.90;5.00;;;;;;;;;;5001159;28;20021;-57
2023/04/11 07:36:07;;;;;;;124.60;6.05;;;;;;;;;;4999907;28;20446;-59
2023/04/11 07:38:33;;;;;;;134.00;6.57;;;;;;;;;;4998116;28;20598;-59
2023/04/11 07:40:59;;;;;;;121.22;6.43;;;;;;;;;;4997285;28;20041;-58
2023/04/11 07:43:25;;;;;;;96.20;5.07;;;;;;;;;;4995770;28;20232;-58
2023/04/11 07:45:51;;;;;;;103.60;5.25;;;;;;;;;;4996371;28;20361;-60
2023/04/11 07:48:16;;;;;;;110.70;5.78;;;;;;;;;;4997051;28;20025;-58
2023/04/11 07:50:42;;;;;;;112.60;5.85;;;;;;;;;;4995471;28;20108;-59
2023/04/11 07:53:09;;;;;;;106.28;5.82;;;;;;;;;;5000398;28;20103;-57
2023/04/11 07:55:35;;;;;;;105.38;5.53;;;;;;;;;;4995453;28;20073;-59
2023/04/11 07:58:00;;;;;;;118.53;6.03;;;;;;;;;;4991994;28;20519;-58
2023/04/11 08:00:25;;;;;;;137.13;6.50;;;;;;;;;;4997377;28;20026;-58
2023/04/11 08:02:51;;;;;;;125.60;6.47;;;;;;;;;;4996597;28;20249;-57
2023/04/11 08:05:16;;;;;;;104.05;5.50;;;;;;;;;;4997319;28;20307;-56
2023/04/11 08:07:41;;;;;;;117.65;6.13;;;;;;;;;;4992025;28;20037;-58
2023/04/11 08:10:07;;;;;;;88.65;4.78;;;;;;;;;;4997850;28;20393;-57
2023/04/11 08:12:32;;;;;;;112.28;5.88;;;;;;;;;;4996521;28;20107;-57
2023/04/11 08:14:57;;;;;;;100.37;5.37;;;;;;;;;;4994774;28;20018;-57
2023/04/11 08:17:24;;;;;;;111.35;5.95;;;;;;;;;;4996388;28;20312;-58
2023/04/11 08:19:50;;;;;;;117.65;5.95;;;;;;;;;;4999076;28;20107;-58
2023/04/11 08:22:15;;;;;;;106.78;5.40;;;;;;;;;;4993005;28;20449;-59
2023/04/11 08:24:40;;;;;;;84.60;4.82;;;;;;;;;;4992426;28;20099;-58
2023/04/11 08:27:05;;;;;;;104.87;5.50;;;;;;;;;;4994559;28;20030;-55
2023/04/11 08:29:31;;;;;;;123.17;5.93;;;;;;;;;;4999378;28;20272;-57
2023/04/11 08:31:56;;;;;;;114.50;5.70;;;;;;;;;;4993561;28;20281;-56
2023/04/11 08:34:21;;;;;;;96.20;5.03;;;;;;;;;;4995556;28;20281;-59
2023/04/11 08:36:47;;;;;;;117.47;5.87;;;;;;;;;;4997843;28;20036;-58
2023/04/11 08:39:12;;;;;;;96.60;5.50;;;;;;;;;;4996421;28;20257;-60
2023/04/11 08:41:37;;;;;;;97.88;5.15;;;;;;;;;;4997211;28;20042;-59
2023/04/11 08:44:02;;;;;;;93.57;4.95;;;;;;;;;;4994196;28;20148;-59
2023/04/11 08:46:29;;;;;;;93.13;4.95;;;;;;;;;;4997825;28;20044;-58
2023/04/11 08:48:54;;;;;;;145.35;7.22;;;;;;;;;;4993736;28;20029;-60
2023/04/11 08:51:23;;;;;;;113.75;5.80;;;;;;;;;;4994064;28;20041;-59
2023/04/11 08:53:51;;;;;;;100.78;5.13;;;;;;;;;;4994128;28;20079;-59
2023/04/11 08:56:16;;;;;;;86.90;4.65;;;;;;;;;;4992894;28;20042;-57
2023/04/11 08:58:41;;;;;;;97.32;5.13;;;;;;;;;;4996411;28;20282;-59
2023/04/11 09:01:29;;;;;;;107.03;5.67;;;;;;;;;;4994562;28;20033;-58
2023/04/11 09:03:54;;;;;;;108.25;5.50;;;;;;;;;;4998387;28;20292;-60
2023/04/11 09:06:20;;;;;;;117.90;6.35;;;;;;;;;;4992710;28;20141;-59
2023/04/11 09:08:45;;;;;;;115.88;6.22;;;;;;;;;;4998034;28;20075;-58
2023/04/11 09:11:10;;;;;;;85.05;4.70;;;;;;;;;;4998226;28;20038;-59
2023/04/11 09:13:36;;;;;;;96.25;5.53;;;;;;;;;;4995883;28;20117;-59
2023/04/11 09:16:04;;;;;;;106.97;5.93;;;;;;;;;;4992648;28;20041;-59
2023/04/11 09:18:31;;;;;;;111.72;6.20;;;;;;;;;;4992999;28;20582;-58
2023/04/11 09:20:58;;;;;;;118.47;6.43;;;;;;;;;;4993122;28;20069;-57
2023/04/11 09:23:23;;;;;;;106.97;6.03;;;;;;;;;;4996187;28;20133;-60
2023/04/11 09:25:48;;;;;;;121.00;6.17;;;;;;;;;;4999266;28;20503;-59
2023/04/11 09:28:13;;;;;;;97.07;5.30;;;;;;;;;;4997468;28;20354;-59
2023/04/11 09:30:47;;;;;;;93.97;5.10;;;;;;;;;;4995045;28;20039;-59
2023/04/11 09:33:23;;;;;;;109.55;6.00;;;;;;;;;;4995922;28;20484;-58
2023/04/11 09:35:49;;;;;;;93.18;5.32;;;;;;;;;;4996798;28;20405;-57
2023/04/11 09:38:26;;;;;;;110.18;5.85;;;;;;;;;;4997029;28;20032;-59
2023/04/11 09:40:51;;;;;;;98.60;5.35;;;;;;;;;;4995442;28;20053;-60
2023/04/11 09:43:16;;;;;;;100.72;5.43;;;;;;;;;;4992855;28;20026;-59
2023/04/11 09:45:43;;;;;;;92.53;5.00;;;;;;;;;;4994518;28;20383;-59
2023/04/11 09:48:08;;;;;;;106.35;5.55;;;;;;;;;;4998752;28;20640;-60
2023/04/11 09:50:35;;;;;;;96.95;5.35;;;;;;;;;;4992392;28;20536;-60
2023/04/11 09:53:01;;;;;;;115.30;6.60;;;;;;;;;;4989677;28;20109;-59
2023/04/11 09:55:26;;;;;;;102.65;5.60;;;;;;;;;;4994064;28;20326;-60
2023/04/11 09:57:52;;;;;;;96.80;5.43;;;;;;;;;;4992947;28;20033;-61
2023/04/11 10:00:18;;;;;;;83.75;4.55;;;;;;;;;;4990284;28;20053;-60
2023/04/11 10:02:44;;;;;;;102.00;5.60;;;;;;;;;;4993153;28;20025;-61
2023/04/11 10:05:10;;;;;;;86.60;4.78;;;;;;;;;;4992088;28;20026;-60
2023/04/11 10:07:43;;;;;;;110.68;5.93;;;;;;;;;;4992967;28;20036;-59
2023/04/11 10:10:09;;;;;;;70.45;4.57;;;;;;;;;;4993294;28;20442;-60
2023/04/11 10:12:34;;;;;;;88.15;5.15;;;;;;;;;;4994830;28;20541;-59
2023/04/11 10:15:07;;;;;;;93.68;5.25;;;;;;;;;;4995143;28;20561;-60
2023/04/11 10:17:32;;;;;;;83.18;4.72;;;;;;;;;;4995153;28;20038;-60
2023/04/11 10:19:58;;;;;;;109.72;6.03;;;;;;;;;;4995131;28;20055;-59
2023/04/11 10:22:45;;;;;;;100.90;5.50;;;;;;;;;;4997039;28;20038;-59
2023/04/11 10:25:16;;;;;;;97.93;5.28;;;;;;;;;;4995399;28;20038;-60
2023/04/11 10:28:00;;;;;;;87.28;5.43;;;;;;;;;;4995038;28;20026;-57
2023/04/11 10:30:40;;;;;;;90.70;5.15;;;;;;;;;;4997264;28;20037;-59
2023/04/11 10:33:12;;;;;;;148.82;7.75;;;;;;;;;;4994320;28;20138;-59
2023/04/11 10:35:57;;;;;;;81.38;4.82;;;;;;;;;;4992110;28;20085;-59
2023/04/11 10:38:42;;;;;;;118.13;6.28;;;;;;;;;;4992489;28;20088;-59
2023/04/11 10:41:26;;;;;;;77.78;4.72;;;;;;;;;;4999556;28;20054;-58
2023/04/11 10:43:52;;;;;;;86.32;4.85;;;;;;;;;;4998258;28;20540;-58
2023/04/11 10:46:18;;;;;;;109.43;5.90;;;;;;;;;;4998103;28;20042;-60
2023/04/11 10:48:55;;;;;;;89.50;5.13;;;;;;;;;;4996229;28;20044;-59
2023/04/11 10:51:22;;;;;;;93.88;5.40;;;;;;;;;;5000301;28;20033;-59
2023/04/11 10:53:47;;;;;;;105.75;5.63;;;;;;;;;;4998562;28;20485;-60
2023/04/11 10:56:12;;;;;;;70.53;4.37;;;;;;;;;;4998495;28;20034;-59
2023/04/11 10:58:38;;;;;;;103.30;5.80;;;;;;;;;;4996374;28;20752;-60
2023/04/11 11:01:14;;;;;;;92.63;5.18;;;;;;;;;;4995322;28;21091;-59
2023/04/11 11:03:39;;;;;;;91.03;5.20;;;;;;;;;;4996399;28;20033;-59
2023/04/11 11:06:05;;;;;;;75.82;4.65;;;;;;;;;;4996260;28;20041;-58
2023/04/11 11:08:40;;;;;;;93.82;5.07;;;;;;;;;;4994857;28;20042;-58
2023/04/11 11:11:06;;;;;;;94.18;5.22;;;;;;;;;;4998111;28;20104;-59
2023/04/11 11:13:42;;;;;;;96.68;5.47;;;;;;;;;;5001467;28;20022;-59
2023/04/11 11:16:07;;;;;;;108.20;5.60;;;;;;;;;;4993817;28;20037;-59
2023/04/11 11:18:33;;;;;;;84.10;4.63;;;;;;;;;;4999267;28;20017;-59
2023/04/11 11:20:58;;;;;;;102.15;5.68;;;;;;;;;;4997321;28;20049;-59
2023/04/11 11:23:23;;;;;;;96.75;5.53;;;;;;;;;;4996245;28;20061;-59
2023/04/11 11:25:56;;;;;;;74.90;4.50;;;;;;;;;;4998052;28;20076;-59
2023/04/11 11:28:21;;;;;;;86.80;4.80;;;;;;;;;;4998406;28;20272;-59
2023/04/11 11:30:53;;;;;;;75.73;4.53;;;;;;;;;;4996084;28;20031;-58
2023/04/11 11:33:20;;;;;;;109.97;5.85;;;;;;;;;;4997906;28;20355;-58
2023/04/11 11:35:51;;;;;;;83.57;4.93;;;;;;;;;;4998939;28;20037;-59
2023/04/11 11:38:16;;;;;;;54.58;3.50;;;;;;;;;;4997006;28;20113;-60
2023/04/11 11:40:41;;;;;;;103.18;5.85;;;;;;;;;;4996682;28;20033;-59
2023/04/11 11:43:07;;;;;;;123.65;6.53;;;;;;;;;;4995778;28;20068;-59
2023/04/11 11:45:32;;;;;;;113.35;6.28;;;;;;;;;;4996494;28;20037;-59
2023/04/11 11:47:57;;;;;;;86.90;4.82;;;;;;;;;;4997851;28;20018;-59
2023/04/11 11:50:24;;;;;;;71.90;4.67;;;;;;;;;;4997171;28;20084;-59
2023/04/11 11:52:50;;;;;;;106.45;5.63;;;;;;;;;;4996521;28;20282;-59
2023/04/11 11:55:18;;;;;;;88.15;4.88;;;;;;;;;;4996948;28;20018;-59
2023/04/11 11:57:47;;;;;;;83.88;4.88;;;;;;;;;;4999282;28;20149;-58
2023/04/11 12:00:13;;;;;;;80.88;4.95;;;;;;;;;;4993154;28;20513;-59
2023/04/11 12:02:40;;;;;;;89.90;5.13;;;;;;;;;;5000082;28;20033;-59
2023/04/11 12:05:06;;;;;;;90.70;5.30;;;;;;;;;;4994961;28;20430;-59
2023/04/11 12:07:32;;;;;;;86.20;4.82;;;;;;;;;;4997934;28;20055;-61
2023/04/11 12:10:02;;;;;;;98.35;5.35;;;;;;;;;;4996661;28;20052;-59
2023/04/11 12:12:37;;;;;;;81.07;4.63;;;;;;;;;;4995889;28;20029;-59
2023/04/11 12:15:12;;;;;;;113.45;5.97;;;;;;;;;;4996563;28;20571;-59
2023/04/11 12:17:38;;;;;;;96.07;4.93;;;;;;;;;;4997309;28;20085;-58
2023/04/11 12:20:07;;;;;;;77.18;4.38;;;;;;;;;;4992636;28;20034;-61
2023/04/11 12:22:32;;;;;;;103.47;5.40;;;;;;;;;;5001128;28;20113;-58
2023/04/11 12:25:11;;;;;;;84.32;4.68;;;;;;;;;;5002431;28;20038;-58
2023/04/11 12:27:37;;;;;;;89.45;5.05;;;;;;;;;;4999329;28;20847;-58
2023/04/11 12:30:03;;;;;;;78.78;4.60;;;;;;;;;;4998606;28;20030;-57
2023/04/11 12:32:28;;;;;;;96.85;5.10;;;;;;;;;;4996694;28;20523;-59
2023/04/11 12:34:54;;;;;;;77.28;4.32;;;;;;;;;;4995863;28;20651;-57
2023/04/11 12:37:19;;;;;;;86.88;4.90;;;;;;;;;;4996062;28;20493;-58
2023/04/11 12:39:45;;;;;;;104.55;5.63;;;;;;;;;;4995455;28;20609;-57
2023/04/11 12:42:10;;;;;;;78.43;4.70;;;;;;;;;;4997940;28;20057;-58
2023/04/11 12:44:35;;;;;;;82.43;4.40;;;;;;;;;;4996490;28;20066;-58
2023/04/11 12:47:00;;;;;;;117.23;6.13;;;;;;;;;;4997335;28;20026;-59
2023/04/11 12:49:27;;;;;;;84.80;4.70;;;;;;;;;;4996411;28;20266;-59
2023/04/11 12:51:52;;;;;;;81.40;4.30;;;;;;;;;;4993024;28;20569;-59
2023/04/11 12:54:17;;;;;;;62.10;3.65;;;;;;;;;;4994525;28;20018;-58
2023/04/11 12:56:42;;;;;;;80.87;4.50;;;;;;;;;;4993365;28;20034;-59
2023/04/11 12:59:08;;;;;;;107.53;5.70;;;;;;;;;;4995893;28;20260;-60
2023/04/11 13:01:33;;;;;;;92.25;5.07;;;;;;;;;;4996586;28;20322;-57
2023/04/11 13:03:58;;;;;;;68.77;4.23;;;;;;;;;;5000899;28;20307;-57
2023/04/11 13:06:24;;;;;;;84.30;4.83;;;;;;;;;;4996153;28;20354;-56
2023/04/11 13:08:50;;;;;;;85.90;4.85;;;;;;;;;;4993913;28;20257;-58
2023/04/11 13:11:15;;;;;;;99.28;5.30;;;;;;;;;;4996763;28;20049;-59
2023/04/11 13:13:40;;;;;;;84.13;4.33;;;;;;;;;;4994936;28;20029;-59
2023/04/11 13:16:07;;;;;;;87.83;4.83;;;;;;;;;;4996703;28;20970;-59
2023/04/11 13:18:32;;;;;;;107.47;5.93;;;;;;;;;;4995702;28;20261;-57
2023/04/11 13:20:57;;;;;;;87.97;4.77;;;;;;;;;;4995203;28;20045;-58
2023/04/11 13:23:22;;;;;;;94.80;5.17;;;;;;;;;;4996627;28;20253;-59
2023/04/11 13:25:47;;;;;;;85.40;4.60;;;;;;;;;;4997408;28;20278;-60
2023/04/11 13:28:13;;;;;;;77.43;4.23;;;;;;;;;;4995045;28;20076;-58
2023/04/11 13:30:39;;;;;;;100.03;5.13;;;;;;;;;;4990801;28;20288;-58
2023/04/11 13:33:05;;;;;;;151.05;7.82;;;;;;;;;;4993802;28;20394;-59
2023/04/11 13:35:30;;;;;;;71.25;4.22;;;;;;;;;;4993222;28;20333;-58
2023/04/11 13:37:56;;;;;;;127.20;6.38;;;;;;;;;;4996086;28;20006;-57
2023/04/11 13:40:21;;;;;;;105.97;5.25;;;;;;;;;;4992382;28;20030;-57
2023/04/11 13:42:47;;;;;;;94.28;4.85;;;;;;;;;;4993244;28;20029;-59
2023/04/11 13:45:12;;;;;;;104.63;5.45;;;;;;;;;;4995023;28;20045;-59
2023/04/11 13:47:37;;;;;;;92.22;4.78;;;;;;;;;;4992453;28;20026;-58
2023/04/11 13:50:03;;;;;;;95.15;5.20;;;;;;;;;;4995091;28;20022;-57
2023/04/11 13:52:28;;;;;;;97.53;5.07;;;;;;;;;;4995460;28;20042;-58
2023/04/11 13:54:54;;;;;;;87.88;4.50;;;;;;;;;;4990946;28;20017;-58
2023/04/11 13:57:20;;;;;;;96.18;5.07;;;;;;;;;;4997380;28;20242;-58
2023/04/11 13:59:45;;;;;;;89.93;4.47;;;;;;;;;;4996213;28;20091;-58
2023/04/11 14:02:11;;;;;;;89.75;4.70;;;;;;;;;;4995211;28;20483;-59
2023/04/11 14:04:36;;;;;;;104.65;5.65;;;;;;;;;;4996993;28;20054;-58
2023/04/11 14:07:01;;;;;;;106.50;5.47;;;;;;;;;;4994511;28;20054;-60
2023/04/11 14:09:27;;;;;;;89.13;4.72;;;;;;;;;;4993120;28;20678;-58
2023/04/11 14:11:52;;;;;;;100.47;5.23;;;;;;;;;;4996853;28;20108;-59
2023/04/11 14:14:17;;;;;;;64.07;3.53;;;;;;;;;;4997785;28;20889;-59
2023/04/11 14:16:42;;;;;;;113.90;5.60;;;;;;;;;;5000974;28;20026;-59